Time;durP1;ratioP1;P1;durP2;ratioP2;P2;SDS_P1;SDS_P2;PMS_P1;PMS_P2;Temp;Humidity;BMP_temperature;BMP_pressure;BME280_temperature;BME280_humidity;BME280_pressure;Samples;Min_cycle;Max_cycle;Signal;HPM_P1;HPM_P2
2021/07/24 00:02:24;;;;;;;22.00;11.07;;;21.20;76.20;;;;;;4988847;28;21003;-77
2021/07/24 00:04:50;;;;;;;20.90;11.07;;;21.30;76.10;;;;;;4979958;28;20980;-75
2021/07/24 00:07:16;;;;;;;21.03;12.00;;;21.30;75.80;;;;;;4985870;28;20213;-76
2021/07/24 00:09:41;;;;;;;19.53;11.80;;;21.30;75.90;;;;;;4979865;28;20222;-76
2021/07/24 00:12:07;;;;;;;19.37;11.80;;;21.30;76.10;;;;;;4986412;28;20182;-76
2021/07/24 00:14:33;;;;;;;16.37;11.47;;;21.30;76.20;;;;;;4985189;28;20189;-76
2021/07/24 00:16:59;;;;;;;19.13;12.10;;;21.20;76.20;;;;;;4988715;28;20444;-76
2021/07/24 00:19:24;;;;;;;23.70;11.77;;;21.20;76.20;;;;;;4993175;28;20260;-76
2021/07/24 00:21:50;;;;;;;21.80;11.40;;;21.20;76.10;;;;;;4994923;28;20300;-74
2021/07/24 00:24:16;;;;;;;15.67;10.60;;;21.20;76.20;;;;;;4992651;28;20280;-75
2021/07/24 00:26:42;;;;;;;20.43;12.67;;;21.20;76.40;;;;;;4986116;28;20216;-75
2021/07/24 00:29:08;;;;;;;21.63;12.10;;;21.20;76.20;;;;;;4985487;28;20276;-76
2021/07/24 00:31:35;;;;;;;18.43;12.30;;;21.10;76.40;;;;;;4981919;28;20788;-77
2021/07/24 00:34:01;;;;;;;21.10;12.40;;;21.10;76.20;;;;;;4985256;28;20432;-76
2021/07/24 00:36:27;;;;;;;19.13;11.90;;;21.10;76.40;;;;;;4989588;28;20753;-77
2021/07/24 00:38:53;;;;;;;23.20;13.30;;;21.00;77.00;;;;;;4988925;28;20515;-76
2021/07/24 00:41:45;;;;;;;19.47;12.10;;;21.00;77.60;;;;;;4993341;28;20794;-76
2021/07/24 00:44:15;;;;;;;23.67;12.17;;;21.00;77.40;;;;;;4995008;28;20445;-74
2021/07/24 00:46:42;;;;;;;23.97;13.83;;;20.90;77.30;;;;;;4992644;28;20490;-75
2021/07/24 00:49:10;;;;;;;20.50;12.63;;;20.90;77.70;;;;;;4991083;28;20492;-75
2021/07/24 00:51:38;;;;;;;20.27;12.33;;;20.90;77.80;;;;;;4983530;28;20433;-75
2021/07/24 00:54:04;;;;;;;24.70;11.90;;;20.90;77.60;;;;;;4978432;28;20489;-76
2021/07/24 00:56:30;;;;;;;20.30;11.87;;;20.90;77.40;;;;;;4985562;28;20467;-77
2021/07/24 00:58:56;;;;;;;17.93;10.70;;;20.90;77.10;;;;;;4984835;28;20789;-76
2021/07/24 01:01:22;;;;;;;17.80;11.03;;;21.00;76.80;;;;;;4983961;28;20438;-76
2021/07/24 01:03:48;;;;;;;20.80;12.00;;;21.00;76.50;;;;;;4986092;28;20780;-78
2021/07/24 01:06:16;;;;;;;21.93;12.00;;;20.90;76.50;;;;;;4980787;28;20454;-75
2021/07/24 01:08:43;;;;;;;20.20;11.50;;;20.90;76.70;;;;;;4983910;28;20473;-75
2021/07/24 01:11:11;;;;;;;20.77;13.53;;;20.90;77.00;;;;;;4987893;28;20805;-76
2021/07/24 01:13:39;;;;;;;17.07;11.60;;;20.90;77.40;;;;;;4983344;28;20424;-75
2021/07/24 01:16:06;;;;;;;20.87;11.90;;;20.90;77.10;;;;;;4984486;28;20476;-75
2021/07/24 01:18:31;;;;;;;21.30;11.87;;;20.90;77.40;;;;;;4984270;28;20427;-75
2021/07/24 01:21:04;;;;;;;21.63;11.87;;;20.90;77.60;;;;;;4984620;28;21117;-75
2021/07/24 01:23:30;;;;;;;21.67;12.70;;;20.90;77.40;;;;;;4982018;28;20188;-76
2021/07/24 01:25:56;;;;;;;19.20;11.30;;;20.90;77.40;;;;;;4979954;28;20458;-76
2021/07/24 01:28:26;;;;;;;16.70;10.63;;;20.90;77.10;;;;;;4986160;28;20482;-76
2021/07/24 01:30:53;;;;;;;19.20;11.30;;;20.90;76.80;;;;;;4985841;28;20200;-75
2021/07/24 01:33:20;;;;;;;17.43;11.47;;;20.80;76.80;;;;;;4986019;28;20422;-75
2021/07/24 01:35:50;;;;;;;23.90;13.83;;;20.80;77.10;;;;;;4983152;28;20520;-76
2021/07/24 01:38:17;;;;;;;22.63;13.10;;;20.70;78.00;;;;;;4988218;28;20430;-75
2021/07/24 01:40:43;;;;;;;21.23;13.77;;;20.70;78.40;;;;;;4989591;28;20480;-77
2021/07/24 01:43:09;;;;;;;33.60;15.27;;;20.60;79.50;;;;;;4991608;28;20437;-75
2021/07/24 01:45:36;;;;;;;24.67;13.83;;;20.60;79.30;;;;;;4985394;28;20462;-76
2021/07/24 01:48:05;;;;;;;22.30;13.77;;;20.60;79.50;;;;;;4991532;28;20881;-77
2021/07/24 01:53:18;;;;;;;22.00;12.77;;;20.60;79.50;;;;;;4994485;28;20796;-76
2021/07/24 01:55:51;;;;;;;21.10;12.80;;;20.60;79.20;;;;;;4987568;28;20541;-76
2021/07/24 01:58:22;;;;;;;18.10;11.33;;;20.60;79.00;;;;;;4991137;28;20578;-75
2021/07/24 02:00:49;;;;;;;21.10;12.67;;;20.60;78.90;;;;;;4988186;28;20496;-75
2021/07/24 02:03:17;;;;;;;22.23;12.97;;;20.60;78.70;;;;;;4993641;28;20803;-75
2021/07/24 02:05:52;;;;;;;23.77;12.63;;;20.60;78.90;;;;;;4981081;28;20482;-76
2021/07/24 02:08:23;;;;;;;21.07;11.90;;;20.60;78.90;;;;;;4992172;28;20477;-77
2021/07/24 02:10:50;;;;;;;19.90;12.90;;;20.60;78.60;;;;;;4994133;28;20421;-75
2021/07/24 02:13:18;;;;;;;23.87;13.37;;;20.60;78.40;;;;;;4989594;28;20435;-75
2021/07/24 02:15:43;;;;;;;25.40;13.10;;;20.60;78.60;;;;;;5007853;28;20439;-75
2021/07/24 02:18:14;;;;;;;25.40;13.70;;;20.60;78.40;;;;;;4999057;28;20447;-76
2021/07/24 02:20:44;;;;;;;29.37;12.70;;;20.60;78.30;;;;;;4991096;28;20714;-75
2021/07/24 02:23:10;;;;;;;20.30;12.50;;;20.60;78.30;;;;;;4990895;28;20910;-76
2021/07/24 02:25:35;;;;;;;21.40;13.67;;;20.60;78.30;;;;;;4988209;28;20424;-75
2021/07/24 02:28:01;;;;;;;21.60;12.87;;;20.60;78.30;;;;;;4987779;28;20176;-75
2021/07/24 02:30:27;;;;;;;21.13;12.60;;;20.70;78.30;;;;;;4986063;28;20606;-75
2021/07/24 02:32:52;;;;;;;20.53;11.90;;;20.70;78.10;;;;;;4986103;28;20188;-74
2021/07/24 02:35:18;;;;;;;21.33;11.83;;;20.70;77.80;;;;;;4987509;28;20209;-75
2021/07/24 02:37:44;;;;;;;18.57;11.23;;;20.70;77.60;;;;;;4991403;28;20208;-74
2021/07/24 02:40:10;;;;;;;22.67;11.57;;;20.70;77.60;;;;;;4995648;28;20195;-75
2021/07/24 02:42:35;;;;;;;20.97;12.33;;;20.70;77.00;;;;;;4996940;28;20194;-75
2021/07/24 02:45:01;;;;;;;20.90;12.57;;;20.50;76.80;;;;;;4990365;28;20431;-76
2021/07/24 02:47:27;;;;;;;21.17;12.70;;;20.60;79.50;;;;;;4986534;28;20221;-76
2021/07/24 02:49:53;;;;;;;23.60;13.50;;;20.50;79.20;;;;;;4990907;28;20466;-75
2021/07/24 02:52:19;;;;;;;23.70;13.27;;;20.40;79.30;;;;;;4985650;28;20210;-77
2021/07/24 02:54:44;;;;;;;22.33;12.83;;;20.30;79.90;;;;;;4988387;28;20676;-76
2021/07/24 02:57:10;;;;;;;18.63;12.60;;;20.40;79.50;;;;;;4980927;28;20261;-76
2021/07/24 02:59:36;;;;;;;26.30;14.17;;;20.60;78.90;;;;;;4994200;28;20555;-75
2021/07/24 03:02:01;;;;;;;21.70;13.23;;;20.60;78.40;;;;;;4993041;28;20190;-76
2021/07/24 03:04:27;;;;;;;24.97;13.00;;;20.60;78.40;;;;;;4990941;28;20293;-77
2021/07/24 03:06:54;;;;;;;23.07;11.90;;;20.60;78.60;;;;;;4989194;28;20206;-76
2021/07/24 03:09:20;;;;;;;21.47;13.13;;;20.60;78.70;;;;;;4993184;28;20214;-76
2021/07/24 03:11:46;;;;;;;20.37;12.20;;;20.60;78.60;;;;;;4991834;28;20431;-76
2021/07/24 03:14:12;;;;;;;18.63;12.07;;;20.70;78.60;;;;;;4991148;28;20178;-76
2021/07/24 03:16:37;;;;;;;24.07;12.80;;;20.70;78.70;;;;;;4993246;28;20597;-77
2021/07/24 03:19:03;;;;;;;23.63;12.30;;;20.70;78.60;;;;;;4984858;28;20657;-75
2021/07/24 03:21:29;;;;;;;20.80;12.70;;;20.70;78.60;;;;;;4988593;28;20207;-76
2021/07/24 03:23:55;;;;;;;23.30;12.80;;;20.80;78.40;;;;;;4984125;28;20242;-76
2021/07/24 03:26:20;;;;;;;18.70;11.60;;;20.80;78.40;;;;;;4986894;28;20332;-76
2021/07/24 03:28:47;;;;;;;19.40;11.37;;;20.80;78.40;;;;;;4990074;28;20584;-75
2021/07/24 03:31:13;;;;;;;19.43;11.93;;;20.80;78.40;;;;;;4983397;28;20215;-76
2021/07/24 03:33:39;;;;;;;22.33;13.07;;;20.80;78.40;;;;;;4987449;28;20469;-76
2021/07/24 03:36:05;;;;;;;20.03;12.23;;;20.80;78.40;;;;;;4987355;28;20434;-77
2021/07/24 03:38:32;;;;;;;21.50;12.60;;;20.80;78.30;;;;;;4992078;28;20422;-78
2021/07/24 03:40:58;;;;;;;20.33;12.47;;;20.80;78.30;;;;;;4992713;28;20924;-74
2021/07/24 03:43:24;;;;;;;24.13;12.37;;;20.80;78.00;;;;;;4991846;28;20469;-74
2021/07/24 03:45:50;;;;;;;23.07;13.27;;;20.80;78.10;;;;;;4992061;28;20447;-76
2021/07/24 03:48:15;;;;;;;22.93;13.27;;;20.80;78.10;;;;;;4993862;28;20280;-75
2021/07/24 03:50:42;;;;;;;22.97;14.53;;;20.80;78.30;;;;;;4998636;28;20187;-75
2021/07/24 03:53:08;;;;;;;24.70;13.60;;;20.80;78.40;;;;;;4991416;28;20186;-76
2021/07/24 03:55:35;;;;;;;23.03;13.70;;;20.70;78.70;;;;;;4991152;28;20417;-76
2021/07/24 03:58:01;;;;;;;22.40;13.03;;;20.70;79.00;;;;;;4982141;28;20436;-76
2021/07/24 04:00:33;;;;;;;26.57;13.90;;;20.70;78.90;;;;;;4986194;28;20529;-76
2021/07/24 04:03:02;;;;;;;22.83;13.70;;;20.70;79.20;;;;;;4988543;28;20427;-76
2021/07/24 04:05:27;;;;;;;28.03;15.93;;;20.70;79.30;;;;;;4984210;28;20823;-77
2021/07/24 04:07:53;;;;;;;24.93;13.07;;;20.60;79.50;;;;;;4986379;28;20419;-76
2021/07/24 04:10:19;;;;;;;25.90;14.10;;;20.60;79.30;;;;;;4989165;28;20226;-77
2021/07/24 04:12:49;;;;;;;25.13;14.60;;;20.50;79.30;;;;;;4987589;28;20188;-75
2021/07/24 04:15:15;;;;;;;25.13;12.90;;;20.50;80.00;;;;;;4988996;28;20252;-74
2021/07/24 04:17:41;;;;;;;32.83;14.57;;;20.50;80.30;;;;;;4982283;28;20980;-74
2021/07/24 04:20:07;;;;;;;23.00;13.50;;;20.50;80.30;;;;;;4984833;28;20434;-75
2021/07/24 04:22:33;;;;;;;24.07;14.00;;;20.60;79.90;;;;;;4984539;28;20190;-76
2021/07/24 04:24:59;;;;;;;20.93;13.00;;;20.60;79.90;;;;;;4991514;28;20436;-76
2021/07/24 04:27:24;;;;;;;20.83;12.43;;;20.60;79.70;;;;;;4984669;28;20249;-75
2021/07/24 04:29:50;;;;;;;25.67;14.17;;;20.50;79.90;;;;;;4991847;28;20353;-76
2021/07/24 04:32:16;;;;;;;21.47;12.87;;;20.50;79.70;;;;;;4980129;28;20207;-75
2021/07/24 04:34:41;;;;;;;23.60;13.13;;;20.50;79.90;;;;;;4984760;28;20196;-77
2021/07/24 04:37:07;;;;;;;24.50;13.27;;;20.60;80.00;;;;;;4991000;28;20319;-76
2021/07/24 04:39:33;;;;;;;22.00;12.67;;;20.60;80.20;;;;;;4991026;28;20201;-78
2021/07/24 04:41:59;;;;;;;23.03;12.40;;;20.60;79.70;;;;;;4987419;28;20268;-75
2021/07/24 04:44:24;;;;;;;21.47;12.33;;;20.70;79.70;;;;;;4986082;28;20649;-76
2021/07/24 04:46:50;;;;;;;21.47;13.30;;;20.70;79.60;;;;;;4985805;28;20207;-77
2021/07/24 04:49:16;;;;;;;23.57;12.97;;;20.70;79.20;;;;;;4989367;28;20635;-75
2021/07/24 04:51:42;;;;;;;22.47;12.13;;;20.60;79.50;;;;;;4983350;28;20192;-75
2021/07/24 04:54:09;;;;;;;21.17;13.07;;;20.70;79.00;;;;;;4999865;28;20505;-73
2021/07/24 04:56:37;;;;;;;24.00;14.20;;;20.80;79.20;;;;;;5007301;28;20224;-77
2021/07/24 04:59:05;;;;;;;24.27;14.07;;;20.90;78.40;;;;;;4989043;28;20429;-75
2021/07/24 05:01:30;;;;;;;26.50;13.20;;;20.90;78.70;;;;;;4990974;28;20455;-75
2021/07/24 05:03:57;;;;;;;23.80;13.80;;;20.80;79.30;;;;;;4989058;28;20528;-74
2021/07/24 05:06:24;;;;;;;21.17;12.60;;;20.80;79.70;;;;;;4982319;28;20208;-75
2021/07/24 05:08:50;;;;;;;23.40;14.17;;;20.80;80.00;;;;;;4990771;28;20557;-75
2021/07/24 05:11:15;;;;;;;24.83;14.00;;;20.80;80.00;;;;;;4980931;28;20933;-76
2021/07/24 05:13:41;;;;;;;24.60;12.70;;;20.80;80.00;;;;;;4984195;28;20238;-76
2021/07/24 05:16:07;;;;;;;24.67;13.80;;;20.90;79.90;;;;;;4984174;28;20264;-78
2021/07/24 05:18:32;;;;;;;22.10;13.23;;;21.00;79.30;;;;;;4983709;28;20256;-77
2021/07/24 05:20:58;;;;;;;23.20;12.10;;;21.00;79.00;;;;;;4985288;28;20679;-75
2021/07/24 05:23:24;;;;;;;20.87;13.00;;;21.00;78.70;;;;;;4991696;28;20287;-75
2021/07/24 05:25:50;;;;;;;26.50;13.53;;;20.90;79.60;;;;;;4985839;28;20325;-76
2021/07/24 05:28:16;;;;;;;28.60;14.70;;;21.00;79.30;;;;;;4989695;28;20954;-76
2021/07/24 05:30:41;;;;;;;21.60;13.00;;;21.00;79.50;;;;;;4990387;28;20185;-76
2021/07/24 05:33:07;;;;;;;20.30;13.53;;;21.10;79.50;;;;;;4995046;28;20244;-74
2021/07/24 05:35:33;;;;;;;26.40;13.40;;;21.20;79.60;;;;;;4990619;28;20537;-75
2021/07/24 05:37:59;;;;;;;22.30;13.53;;;21.20;78.60;;;;;;4994621;28;20180;-74
2021/07/24 05:40:25;;;;;;;22.27;12.27;;;21.30;78.40;;;;;;4994057;28;20215;-75
2021/07/24 05:42:50;;;;;;;22.60;13.47;;;21.40;78.10;;;;;;4994502;28;21328;-75
2021/07/24 05:45:16;;;;;;;21.00;13.30;;;21.60;77.40;;;;;;4992291;28;20216;-75
2021/07/24 05:47:42;;;;;;;22.47;12.47;;;21.70;76.70;;;;;;4994905;28;20211;-75
2021/07/24 05:50:08;;;;;;;24.70;14.20;;;21.90;76.20;;;;;;4991668;28;20209;-75
2021/07/24 05:52:34;;;;;;;23.90;12.90;;;22.10;75.80;;;;;;4988685;28;20186;-74
2021/07/24 05:54:59;;;;;;;27.60;14.23;;;22.20;75.40;;;;;;4989253;28;20434;-75
2021/07/24 05:57:25;;;;;;;26.67;14.53;;;22.30;74.60;;;;;;4987324;28;20579;-76
2021/07/24 05:59:51;;;;;;;22.60;12.67;;;22.40;73.50;;;;;;4989191;28;20192;-76
2021/07/24 06:02:18;;;;;;;26.50;13.97;;;22.50;73.20;;;;;;4992771;28;20214;-75
2021/07/24 06:04:44;;;;;;;23.50;13.40;;;22.40;73.20;;;;;;4984185;28;20776;-76
2021/07/24 06:07:10;;;;;;;26.17;14.70;;;22.20;73.90;;;;;;4989673;28;20228;-76
2021/07/24 06:09:36;;;;;;;20.30;12.33;;;22.20;73.90;;;;;;4988104;28;20242;-76
2021/07/24 06:12:01;;;;;;;19.20;13.00;;;22.30;73.90;;;;;;4992194;28;20464;-76
2021/07/24 06:14:27;;;;;;;24.47;14.07;;;22.30;74.00;;;;;;4983696;28;20305;-75
2021/07/24 06:16:53;;;;;;;25.80;14.30;;;22.20;74.30;;;;;;4993952;28;20202;-76
2021/07/24 06:19:20;;;;;;;23.63;14.13;;;22.20;74.20;;;;;;4985875;28;20212;-76
2021/07/24 06:21:47;;;;;;;25.23;14.00;;;22.10;74.20;;;;;;4987958;28;20428;-76
2021/07/24 06:24:14;;;;;;;21.47;12.80;;;22.10;74.60;;;;;;4987748;28;20436;-75
2021/07/24 06:26:40;;;;;;;24.40;13.80;;;22.10;75.10;;;;;;4986484;28;20444;-74
2021/07/24 06:29:07;;;;;;;20.07;13.07;;;22.20;74.60;;;;;;4985874;28;20634;-76
2021/07/24 06:31:32;;;;;;;25.53;15.60;;;22.20;74.30;;;;;;4993087;28;20418;-77
2021/07/24 06:34:01;;;;;;;23.50;14.87;;;22.10;74.80;;;;;;4992682;28;20807;-77
2021/07/24 06:36:27;;;;;;;26.33;14.47;;;22.10;74.90;;;;;;4993407;28;20267;-75
2021/07/24 06:38:53;;;;;;;28.03;14.13;;;22.10;75.40;;;;;;4991934;28;20428;-76
2021/07/24 06:41:19;;;;;;;21.40;12.77;;;22.20;75.40;;;;;;4992523;28;20267;-75
2021/07/24 06:43:44;;;;;;;21.73;13.53;;;22.30;75.50;;;;;;4985978;28;20280;-75
2021/07/24 06:46:11;;;;;;;19.80;12.80;;;22.30;75.80;;;;;;4993766;28;20210;-76
2021/07/24 06:48:37;;;;;;;22.57;13.80;;;22.40;75.40;;;;;;4988679;28;20245;-77
2021/07/24 06:51:07;;;;;;;21.70;12.90;;;22.50;75.20;;;;;;4994715;28;20455;-76
2021/07/24 06:53:33;;;;;;;18.40;12.07;;;22.60;71.70;;;;;;4998754;28;20439;-76
2021/07/24 06:55:59;;;;;;;26.00;13.83;;;22.80;72.40;;;;;;5005175;28;20471;-76
2021/07/24 06:58:25;;;;;;;21.60;13.33;;;23.00;73.90;;;;;;4987489;28;20530;-76
2021/07/24 07:00:51;;;;;;;24.70;12.10;;;23.20;72.60;;;;;;5000806;28;20199;-75
2021/07/24 07:03:16;;;;;;;21.90;12.80;;;23.30;72.40;;;;;;5001423;28;20203;-76
2021/07/24 07:05:42;;;;;;;23.97;13.00;;;23.50;72.00;;;;;;5001462;28;20481;-76
2021/07/24 07:08:08;;;;;;;19.97;11.53;;;23.70;71.60;;;;;;5001507;28;20651;-75
2021/07/24 07:10:33;;;;;;;23.73;13.50;;;23.90;71.00;;;;;;4993476;28;20185;-76
2021/07/24 07:12:59;;;;;;;23.17;12.57;;;24.00;71.40;;;;;;4991531;28;20189;-74
2021/07/24 07:15:27;;;;;;;23.70;14.87;;;24.00;71.40;;;;;;4999156;28;20195;-76
2021/07/24 07:17:53;;;;;;;22.67;13.23;;;24.00;71.40;;;;;;5002420;28;20177;-76
2021/07/24 07:20:19;;;;;;;26.37;14.03;;;24.10;70.50;;;;;;5000697;28;20460;-78
2021/07/24 07:22:44;;;;;;;23.63;13.33;;;24.10;70.50;;;;;;5006609;28;20307;-78
2021/07/24 07:25:10;;;;;;;23.20;13.17;;;24.00;69.70;;;;;;5001884;28;20200;-77
2021/07/24 07:27:44;;;;;;;20.90;12.80;;;24.00;67.00;;;;;;4994590;28;20281;-77
2021/07/24 07:30:13;;;;;;;20.57;12.27;;;24.00;67.60;;;;;;4996135;28;20474;-77
2021/07/24 07:32:39;;;;;;;21.50;13.93;;;24.00;69.20;;;;;;4999528;28;20421;-77
2021/07/24 07:35:05;;;;;;;24.00;13.93;;;24.00;69.90;;;;;;4990803;28;20429;-77
2021/07/24 07:37:31;;;;;;;20.10;12.73;;;24.10;68.80;;;;;;4997554;28;20448;-78
2021/07/24 07:39:57;;;;;;;25.47;12.90;;;24.20;68.50;;;;;;4998229;28;20424;-77
2021/07/24 07:42:23;;;;;;;26.90;14.37;;;24.20;69.80;;;;;;4995458;28;20901;-78
2021/07/24 07:44:49;;;;;;;21.83;13.07;;;24.30;68.60;;;;;;4990518;28;20514;-76
2021/07/24 07:47:15;;;;;;;25.10;12.23;;;24.30;66.90;;;;;;4994367;28;20213;-77
2021/07/24 07:49:40;;;;;;;20.33;11.93;;;24.40;69.40;;;;;;5001470;28;20215;-78
2021/07/24 07:52:07;;;;;;;19.27;12.10;;;24.40;72.30;;;;;;4985416;28;20438;-78
2021/07/24 07:54:33;;;;;;;22.53;13.40;;;24.40;73.30;;;;;;4994484;28;20520;-77
2021/07/24 07:57:02;;;;;;;26.20;15.03;;;24.40;73.00;;;;;;4994008;28;20539;-77
2021/07/24 07:59:29;;;;;;;26.23;14.70;;;24.10;73.70;;;;;;4989485;28;20806;-77
2021/07/24 08:01:54;;;;;;;26.20;14.70;;;23.70;75.10;;;;;;4989928;28;20429;-77
2021/07/24 08:04:20;;;;;;;28.30;13.90;;;23.60;75.80;;;;;;4991774;28;20596;-78
2021/07/24 08:06:47;;;;;;;23.50;14.47;;;23.60;76.20;;;;;;4992949;28;20254;-78
2021/07/24 08:09:12;;;;;;;22.17;13.03;;;23.50;75.20;;;;;;4988113;28;20463;-77
2021/07/24 08:11:39;;;;;;;24.70;13.67;;;23.40;75.20;;;;;;4987307;28;20446;-78
2021/07/24 08:14:04;;;;;;;23.00;13.20;;;23.30;75.10;;;;;;4986073;28;20189;-76
2021/07/24 08:16:30;;;;;;;24.53;14.07;;;23.40;74.90;;;;;;4989681;28;20760;-77
2021/07/24 08:18:56;;;;;;;23.50;13.37;;;23.50;75.20;;;;;;4986323;28;20206;-78
2021/07/24 08:21:21;;;;;;;32.90;15.03;;;23.40;75.40;;;;;;4985236;28;20270;-77
2021/07/24 08:23:47;;;;;;;23.57;13.30;;;23.50;74.50;;;;;;4990235;28;20196;-77
2021/07/24 08:26:13;;;;;;;19.83;12.80;;;23.60;74.90;;;;;;4984253;28;20559;-77
2021/07/24 08:28:39;;;;;;;25.30;12.80;;;23.60;75.70;;;;;;4988597;28;20209;-77
2021/07/24 08:31:05;;;;;;;24.27;13.43;;;23.70;75.80;;;;;;4991332;28;20180;-77
2021/07/24 08:33:31;;;;;;;24.03;14.50;;;23.70;75.80;;;;;;4991556;28;20217;-77
2021/07/24 08:35:57;;;;;;;19.97;12.37;;;23.80;75.80;;;;;;4990963;28;20455;-77
2021/07/24 08:38:23;;;;;;;22.80;13.60;;;24.00;74.00;;;;;;4991855;28;20420;-79
2021/07/24 08:40:49;;;;;;;25.50;14.33;;;24.10;73.00;;;;;;4991093;28;21061;-76
2021/07/24 08:43:15;;;;;;;33.10;17.43;;;24.10;72.90;;;;;;4991060;28;20216;-77
2021/07/24 08:45:42;;;;;;;24.60;13.30;;;24.20;72.60;;;;;;4983634;28;20514;-78
2021/07/24 08:48:09;;;;;;;23.00;14.43;;;24.40;71.10;;;;;;4988238;28;20425;-77
2021/07/24 08:50:34;;;;;;;19.20;12.30;;;24.50;71.00;;;;;;4988072;28;20500;-74
2021/07/24 08:53:06;;;;;;;22.93;13.37;;;24.60;71.40;;;;;;4988346;28;20928;-74
2021/07/24 08:55:33;;;;;;;21.37;12.70;;;24.70;71.10;;;;;;4977548;28;20660;-75
2021/07/24 08:58:00;;;;;;;22.10;13.67;;;24.70;71.10;;;;;;4983397;28;20443;-75
2021/07/24 09:00:27;;;;;;;23.80;14.40;;;24.70;70.80;;;;;;4990699;28;20780;-76
2021/07/24 09:02:56;;;;;;;25.40;15.37;;;24.80;70.10;;;;;;4993568;28;20465;-72
2021/07/24 09:05:22;;;;;;;20.90;13.33;;;25.00;69.70;;;;;;4988800;28;20430;-74
2021/07/24 09:07:50;;;;;;;26.70;13.43;;;25.10;68.80;;;;;;4985232;28;20795;-75
2021/07/24 09:10:19;;;;;;;31.67;14.90;;;25.10;68.00;;;;;;4982161;28;20212;-76
2021/07/24 09:12:47;;;;;;;22.57;12.90;;;25.20;68.60;;;;;;4987131;28;20856;-77
2021/07/24 09:15:18;;;;;;;24.23;13.20;;;25.20;68.30;;;;;;4986830;28;21294;-76
2021/07/24 09:17:45;;;;;;;25.37;13.67;;;25.30;68.50;;;;;;4987814;28;20501;-75
2021/07/24 09:20:11;;;;;;;23.37;13.03;;;25.40;67.70;;;;;;4985840;28;20514;-76
2021/07/24 09:22:42;;;;;;;22.30;13.23;;;25.50;66.70;;;;;;4985315;28;20569;-76
2021/07/24 09:25:41;;;;;;;22.03;12.27;;;25.50;67.60;;;;;;4987369;28;20783;-76
2021/07/24 09:28:10;;;;;;;21.20;12.80;;;25.60;67.20;;;;;;4986188;28;20417;-76
2021/07/24 09:30:38;;;;;;;18.37;12.20;;;25.60;67.20;;;;;;4992184;28;20465;-76
2021/07/24 09:33:07;;;;;;;25.87;12.57;;;25.50;67.60;;;;;;4989698;28;20421;-75
2021/07/24 09:35:43;;;;;;;22.33;12.80;;;25.50;68.30;;;;;;4990245;28;20407;-76
2021/07/24 09:38:29;;;;;;;22.67;13.83;;;25.50;68.20;;;;;;4989580;28;20407;-76
2021/07/24 09:40:57;;;;;;;22.43;13.37;;;25.50;68.30;;;;;;4984814;28;20523;-76
2021/07/24 09:43:30;;;;;;;24.37;14.30;;;25.50;68.60;;;;;;4990391;28;20426;-75
2021/07/24 09:46:21;;;;;;;26.33;13.43;;;25.60;68.90;;;;;;4989456;28;20472;-77
2021/07/24 09:48:47;;;;;;;26.70;13.20;;;25.80;67.90;;;;;;4983642;28;20468;-76
2021/07/24 09:51:14;;;;;;;23.20;14.00;;;26.00;66.90;;;;;;4988243;28;20420;-77
2021/07/24 09:53:41;;;;;;;25.37;14.37;;;26.10;66.70;;;;;;4992256;28;20475;-73
2021/07/24 09:56:13;;;;;;;19.30;12.23;;;26.30;66.70;;;;;;5007840;28;20477;-75
2021/07/24 09:58:39;;;;;;;18.97;12.50;;;26.40;64.80;;;;;;4990049;28;20605;-76
2021/07/24 10:01:07;;;;;;;20.03;12.30;;;26.50;65.70;;;;;;4985244;28;20420;-76
2021/07/24 10:03:35;;;;;;;20.80;13.40;;;26.70;65.30;;;;;;4988178;28;20448;-75
2021/07/24 10:06:08;;;;;;;20.27;12.37;;;26.90;64.80;;;;;;4983050;28;20455;-75
2021/07/24 10:08:36;;;;;;;21.40;12.97;;;27.20;64.70;;;;;;4980681;28;20545;-76
2021/07/24 10:11:02;;;;;;;19.30;11.50;;;27.40;63.40;;;;;;4987393;28;20430;-75
2021/07/24 10:13:28;;;;;;;22.37;12.90;;;27.50;62.80;;;;;;4993123;28;20855;-76
2021/07/24 10:15:55;;;;;;;22.47;13.23;;;27.60;60.40;;;;;;4990500;28;20281;-75
2021/07/24 10:18:22;;;;;;;21.43;11.63;;;27.90;59.50;;;;;;4986102;28;20190;-76
2021/07/24 10:20:50;;;;;;;19.70;11.07;;;28.40;56.90;;;;;;4989328;28;20427;-75
2021/07/24 10:23:23;;;;;;;18.20;11.13;;;28.50;56.00;;;;;;4983749;28;20427;-75
2021/07/24 10:26:08;;;;;;;17.87;10.70;;;28.50;56.10;;;;;;4989500;28;20985;-75
2021/07/24 10:28:36;;;;;;;19.57;11.30;;;28.20;56.10;;;;;;4985606;28;20465;-76
2021/07/24 10:31:11;;;;;;;21.07;11.30;;;28.30;56.20;;;;;;4983362;28;20423;-76
2021/07/24 10:33:37;;;;;;;21.90;11.10;;;28.20;56.10;;;;;;4986714;28;20425;-76
2021/07/24 10:36:14;;;;;;;16.47;10.60;;;28.20;55.70;;;;;;4991335;28;20449;-76
2021/07/24 10:38:58;;;;;;;15.63;9.80;;;28.40;55.30;;;;;;4991345;28;20452;-77
2021/07/24 10:41:23;;;;;;;15.20;8.83;;;28.80;55.00;;;;;;4994905;28;20437;-76
2021/07/24 10:44:07;;;;;;;18.07;10.57;;;29.10;52.50;;;;;;4994021;28;20422;-76
2021/07/24 10:46:43;;;;;;;16.27;11.37;;;29.50;52.40;;;;;;4987096;28;20198;-75
2021/07/24 10:49:29;;;;;;;15.10;9.40;;;29.40;52.50;;;;;;4994922;28;20850;-77
2021/07/24 10:52:01;;;;;;;18.30;10.63;;;29.20;53.30;;;;;;4994054;28;20430;-76
2021/07/24 10:54:31;;;;;;;16.30;11.00;;;29.40;53.80;;;;;;4994868;28;20418;-76
2021/07/24 10:56:58;;;;;;;16.93;10.70;;;29.60;54.50;;;;;;4994746;28;21003;-76
2021/07/24 10:59:25;;;;;;;18.80;10.20;;;29.50;53.40;;;;;;4993685;28;20466;-76
2021/07/24 11:01:52;;;;;;;17.07;11.87;;;29.80;54.00;;;;;;4989295;28;20513;-75
2021/07/24 11:04:36;;;;;;;19.97;11.90;;;29.90;52.50;;;;;;4992909;28;20425;-75
2021/07/24 11:07:14;;;;;;;18.00;10.87;;;29.90;52.90;;;;;;4991249;28;20449;-77
2021/07/24 11:10:06;;;;;;;19.23;11.63;;;29.70;54.10;;;;;;4993378;28;20492;-76
2021/07/24 11:12:36;;;;;;;18.90;10.93;;;29.60;54.40;;;;;;4987366;28;20581;-75
2021/07/24 11:15:04;;;;;;;24.33;11.67;;;29.70;54.80;;;;;;4998377;28;20804;-75
2021/07/24 11:17:29;;;;;;;21.70;10.23;;;29.80;54.40;;;;;;4986899;28;20496;-75
2021/07/24 11:20:03;;;;;;;17.07;10.97;;;30.00;54.00;;;;;;4993772;28;20418;-76
2021/07/24 11:22:29;;;;;;;13.93;8.90;;;30.00;54.10;;;;;;4994815;28;20211;-78
2021/07/24 11:24:58;;;;;;;13.77;7.57;;;29.70;51.70;;;;;;4993459;28;20755;-75
2021/07/24 11:27:29;;;;;;;11.93;7.40;;;29.00;50.30;;;;;;4992524;28;20457;-75
2021/07/24 11:30:07;;;;;;;13.87;7.57;;;28.50;51.30;;;;;;4991078;28;20628;-73
2021/07/24 11:32:35;;;;;;;15.40;8.03;;;28.40;52.50;;;;;;4994502;28;20524;-75
2021/07/24 11:35:26;;;;;;;12.40;7.40;;;28.20;52.90;;;;;;4994715;28;20429;-75
2021/07/24 11:37:52;;;;;;;11.83;7.43;;;28.10;53.80;;;;;;4987908;28;21018;-76
2021/07/24 11:40:21;;;;;;;12.27;8.17;;;28.20;54.50;;;;;;4996012;28;20465;-78
2021/07/24 11:43:04;;;;;;;18.30;8.50;;;28.10;54.40;;;;;;4993960;28;20499;-76
2021/07/24 11:45:31;;;;;;;15.27;7.80;;;27.90;54.90;;;;;;4993512;28;20432;-75
2021/07/24 11:48:15;;;;;;;15.97;8.07;;;27.90;55.20;;;;;;4993459;28;20417;-75
2021/07/24 11:50:43;;;;;;;16.80;8.30;;;27.70;54.20;;;;;;4987549;28;20425;-76
2021/07/24 11:53:12;;;;;;;13.77;8.20;;;27.60;54.50;;;;;;4993673;28;20424;-76
2021/07/24 11:55:42;;;;;;;12.60;8.10;;;27.50;54.20;;;;;;4993121;28;20414;-74
2021/07/24 11:58:14;;;;;;;13.30;8.83;;;27.50;54.40;;;;;;4991588;28;20843;-76
2021/07/24 12:00:42;;;;;;;14.03;8.47;;;27.50;55.20;;;;;;4992287;28;20425;-76
2021/07/24 12:03:19;;;;;;;14.50;8.73;;;27.60;54.80;;;;;;4993179;28;20934;-75
2021/07/24 12:05:46;;;;;;;13.10;8.10;;;28.00;54.90;;;;;;4993199;28;20820;-74
2021/07/24 12:08:12;;;;;;;15.37;9.20;;;28.10;53.80;;;;;;4987892;28;20509;-76
2021/07/24 12:10:49;;;;;;;13.60;8.80;;;28.00;54.50;;;;;;4991971;28;20525;-78
2021/07/24 12:13:23;;;;;;;14.27;8.33;;;28.30;54.40;;;;;;4993336;28;20433;-76
2021/07/24 12:15:55;;;;;;;13.80;8.90;;;28.80;53.80;;;;;;4990904;28;21109;-75
2021/07/24 12:18:21;;;;;;;13.70;8.33;;;29.00;52.90;;;;;;4990844;28;21218;-75
2021/07/24 12:20:49;;;;;;;14.60;8.40;;;29.00;53.00;;;;;;4991804;28;20480;-77
2021/07/24 12:23:22;;;;;;;18.63;9.20;;;29.30;53.30;;;;;;4991599;28;20636;-76
2021/07/24 12:26:33;;;;;;;15.70;9.60;;;29.90;51.60;;;;;;4991677;28;20449;-75
2021/07/24 12:29:01;;;;;;;12.97;9.10;;;29.80;51.40;;;;;;4992671;28;20462;-75
2021/07/24 12:31:29;;;;;;;14.70;9.83;;;29.50;52.60;;;;;;4991904;28;20823;-73
2021/07/24 12:34:13;;;;;;;15.30;9.30;;;29.40;52.90;;;;;;4992024;28;20422;-74
2021/07/24 12:36:51;;;;;;;16.00;8.57;;;29.40;51.70;;;;;;4987434;28;20504;-76